Time;durP1;ratioP1;P1;durP2;ratioP2;P2;SDS_P1;SDS_P2;PMS_P1;PMS_P2;Temp;Humidity;BMP_temperature;BMP_pressure;BME280_temperature;BME280_humidity;BME280_pressure;Samples;Min_cycle;Max_cycle;Signal;HPM_P1;HPM_P2
2021/03/05 00:00:20;;;;;;;30.20;19.48;;;;;;;5.70;68.05;100623.59;5050999;28;20033;-68
2021/03/05 00:02:46;;;;;;;29.95;18.70;;;;;;;5.63;68.10;100634.28;5051095;28;20431;-72
2021/03/05 00:05:12;;;;;;;30.85;19.23;;;;;;;5.64;67.09;100636.91;5051087;28;20036;-68
2021/03/05 00:07:38;;;;;;;27.27;17.98;;;;;;;5.65;65.91;100627.56;5050934;28;20392;-67
2021/03/05 00:10:09;;;;;;;30.08;18.25;;;;;;;5.67;65.71;100620.88;5050840;28;20052;-69
2021/03/05 00:12:36;;;;;;;33.78;18.77;;;;;;;5.69;64.84;100629.50;5050910;28;20021;-72
2021/03/05 00:15:01;;;;;;;26.30;17.88;;;;;;;5.74;64.87;100638.34;5051011;28;20106;-68
2021/03/05 00:17:27;;;;;;;32.88;20.75;;;;;;;5.74;66.80;100627.22;5050728;28;20021;-71
2021/03/05 00:19:53;;;;;;;32.92;19.40;;;;;;;5.65;66.63;100623.31;5050936;28;20040;-68
2021/03/05 00:22:19;;;;;;;39.78;23.65;;;;;;;5.48;68.34;100613.75;5049560;28;20032;-68
2021/03/05 00:24:44;;;;;;;35.92;21.67;;;;;;;5.27;69.69;100621.03;5050485;28;20376;-68
2021/03/05 00:27:09;;;;;;;33.30;22.73;;;;;;;5.14;70.45;100621.97;5050646;28;20028;-69
2021/03/05 00:29:35;;;;;;;35.90;21.52;;;;;;;5.11;70.99;100614.09;5050696;28;20104;-68
2021/03/05 00:32:00;;;;;;;36.22;22.33;;;;;;;5.02;70.50;100602.50;5050216;28;20033;-66
2021/03/05 00:34:26;;;;;;;35.42;23.30;;;;;;;4.89;70.69;100604.22;5050276;28;20035;-68
2021/03/05 00:36:51;;;;;;;38.53;23.03;;;;;;;4.63;71.56;100581.34;5049334;28;20024;-67
2021/03/05 00:39:17;;;;;;;35.60;22.70;;;;;;;4.61;72.40;100597.38;5039787;28;20056;-66
2021/03/05 00:41:42;;;;;;;36.17;22.10;;;;;;;4.28;72.51;100580.00;5038972;28;20117;-68
2021/03/05 00:44:08;;;;;;;40.57;22.73;;;;;;;4.05;73.40;100587.06;5054072;28;20439;-67
2021/03/05 00:46:34;;;;;;;36.87;24.50;;;;;;;3.98;74.33;100590.00;5053804;28;20104;-65
2021/03/05 00:49:00;;;;;;;38.60;24.93;;;;;;;4.17;74.51;100598.88;5052519;28;20477;-68
2021/03/05 00:51:26;;;;;;;38.70;24.97;;;;;;;4.27;73.72;100596.13;5052534;28;20024;-68
2021/03/05 00:53:51;;;;;;;36.87;23.80;;;;;;;4.28;73.58;100600.44;5054018;28;20029;-68
2021/03/05 00:56:18;;;;;;;41.70;25.03;;;;;;;4.42;74.37;100596.19;5053799;28;20029;-68
2021/03/05 00:58:43;;;;;;;37.43;23.87;;;;;;;4.28;74.39;100548.47;5054164;28;20025;-67
2021/03/05 01:01:09;;;;;;;41.93;24.80;;;;;;;4.51;74.30;100588.22;5035248;28;20041;-66
2021/03/05 01:03:35;;;;;;;39.50;24.93;;;;;;;4.36;74.50;100543.03;5053411;28;20109;-70
2021/03/05 01:06:01;;;;;;;37.60;23.40;;;;;;;4.45;73.51;100573.41;5053809;28;20033;-67
2021/03/05 01:08:26;;;;;;;38.30;25.47;;;;;;;4.23;73.84;100567.72;5053784;28;20464;-69
2021/03/05 01:10:52;;;;;;;37.00;23.73;;;;;;;4.23;73.78;100583.06;5053543;28;20021;-67
2021/03/05 01:13:18;;;;;;;41.00;25.53;;;;;;;3.98;73.36;100554.25;5052347;28;20052;-69
2021/03/05 01:15:44;;;;;;;38.87;23.93;;;;;;;4.36;73.68;100576.28;5053431;28;20025;-69
2021/03/05 01:18:09;;;;;;;38.77;24.43;;;;;;;4.45;73.29;100581.06;5053606;28;20029;-68
2021/03/05 01:20:36;;;;;;;41.13;25.23;;;;;;;4.46;73.06;100577.75;5053256;28;20033;-66
2021/03/05 01:23:02;;;;;;;37.57;25.07;;;;;;;4.23;73.12;100553.25;5053542;28;20110;-69
2021/03/05 01:25:31;;;;;;;41.90;25.70;;;;;;;4.30;72.77;100580.09;5053278;28;20033;-66
2021/03/05 01:27:57;;;;;;;38.53;24.43;;;;;;;4.04;74.17;100582.75;5052942;28;20021;-69
2021/03/05 01:30:23;;;;;;;41.53;26.17;;;;;;;3.53;75.42;100550.47;5047267;28;20036;-68
2021/03/05 01:32:50;;;;;;;41.33;26.80;;;;;;;3.53;76.37;100575.97;5032685;28;20499;-68
2021/03/05 01:35:22;;;;;;;44.30;28.00;;;;;;;3.37;76.80;100576.63;5032966;28;20052;-69
2021/03/05 01:37:48;;;;;;;45.33;27.43;;;;;;;3.37;77.20;100580.03;5033746;28;20104;-68
2021/03/05 01:40:19;;;;;;;40.17;25.93;;;;;;;3.47;76.81;100579.00;5033633;28;20060;-68
2021/03/05 01:42:45;;;;;;;43.50;27.97;;;;;;;3.55;76.19;100575.31;5033465;28;20087;-68
2021/03/05 01:45:13;;;;;;;44.97;27.07;;;;;;;3.64;75.25;100577.59;5033699;28;20029;-68
2021/03/05 01:47:39;;;;;;;41.03;25.83;;;;;;;3.70;74.42;100567.78;5032963;28;20488;-68
2021/03/05 01:50:11;;;;;;;37.77;24.43;;;;;;;3.88;73.00;100592.75;5033300;28;20030;-67
2021/03/05 01:52:42;;;;;;;36.87;22.80;;;;;;;3.94;71.53;100585.50;5033498;28;20473;-68
2021/03/05 01:55:08;;;;;;;34.37;23.53;;;;;;;4.00;71.77;100591.00;5033052;28;20025;-68
2021/03/05 01:57:33;;;;;;;41.07;25.47;;;;;;;4.01;71.59;100594.44;5033541;28;20571;-68
2021/03/05 01:59:59;;;;;;;44.00;25.93;;;;;;;4.00;72.03;100595.19;5031104;28;20030;-68
2021/03/05 02:02:27;;;;;;;40.17;24.20;;;;;;;4.09;71.46;100602.59;5033404;28;20108;-68
2021/03/05 02:04:53;;;;;;;38.77;23.90;;;;;;;3.91;69.46;100559.72;5033305;28;20030;-67
2021/03/05 02:07:18;;;;;;;42.97;25.77;;;;;;;4.08;70.43;100588.94;5032962;28;20028;-67
2021/03/05 02:09:44;;;;;;;43.53;24.90;;;;;;;3.79;72.05;100589.56;5033162;28;20061;-68
2021/03/05 02:12:09;;;;;;;42.27;25.87;;;;;;;3.76;72.36;100594.50;5033119;28;20026;-67
2021/03/05 02:14:35;;;;;;;43.70;27.00;;;;;;;3.32;74.02;100565.22;5032773;28;20053;-68
2021/03/05 02:17:06;;;;;;;52.63;29.57;;;;;;;3.62;75.62;100591.03;5032662;28;20049;-67
2021/03/05 02:20:00;;;;;;;52.57;28.33;;;;;;;3.71;76.88;100582.31;5032583;28;20481;-70
2021/03/05 02:22:50;;;;;;;53.93;27.80;;;;;;;3.44;79.61;100543.06;5010680;28;20068;-68
2021/03/05 02:25:21;;;;;;;70.85;28.10;;;;;;;3.49;82.43;100589.31;5010670;28;20109;-68
2021/03/05 02:28:18;;;;;;;65.23;27.60;;;;;;;3.34;84.07;100584.94;5010551;28;20042;-67
2021/03/05 02:31:07;;;;;;;73.00;28.13;;;;;;;3.14;85.48;100583.59;5010420;28;20029;-68
2021/03/05 02:33:47;;;;;;;58.97;25.70;;;;;;;3.05;85.67;100577.84;5010477;28;20041;-67
2021/03/05 02:36:20;;;;;;;69.37;28.17;;;;;;;2.84;86.29;100584.91;5010593;28;20037;-68
2021/03/05 02:38:55;;;;;;;104.87;31.33;;;;;;;2.67;88.96;100542.97;5010401;28;20116;-67
2021/03/05 02:41:21;;;;;;;126.27;31.90;;;;;;;3.00;90.25;100585.19;5009703;28;20038;-69
2021/03/05 02:43:47;;;;;;;119.20;29.47;;;;;;;3.01;90.55;100574.19;5010023;28;20040;-68
2021/03/05 02:46:13;;;;;;;133.90;30.40;;;;;;;3.08;91.14;100589.16;5009799;28;20117;-68
2021/03/05 02:48:44;;;;;;;86.97;28.90;;;;;;;3.08;90.76;100586.59;5010024;28;20448;-66
2021/03/05 02:51:13;;;;;;;130.23;32.00;;;;;;;2.84;91.23;100544.09;5010166;28;20040;-68
2021/03/05 02:53:42;;;;;;;147.37;30.13;;;;;;;3.15;91.82;100587.03;5010322;28;20070;-67
2021/03/05 02:56:18;;;;;;;90.22;29.25;;;;;;;3.25;91.89;100584.31;5010115;28;20052;-66
2021/03/05 02:58:47;;;;;;;83.33;29.47;;;;;;;3.14;91.68;100545.34;5016876;28;20065;-68
2021/03/05 03:01:14;;;;;;;106.82;29.80;;;;;;;3.46;91.93;100589.09;5038384;28;20499;-68
2021/03/05 03:03:40;;;;;;;93.30;29.23;;;;;;;3.48;92.08;100588.44;5052137;28;20037;-68
2021/03/05 03:06:11;;;;;;;74.53;29.90;;;;;;;3.49;91.75;100580.00;5083566;28;20063;-68
2021/03/05 03:08:38;;;;;;;87.60;28.40;;;;;;;3.62;91.80;100594.44;5051657;28;20025;-68
2021/03/05 03:11:05;;;;;;;83.17;28.27;;;;;;;3.48;91.71;100557.81;5051879;28;20060;-68
2021/03/05 03:13:37;;;;;;;128.43;28.70;;;;;;;3.71;91.65;100595.09;5051989;28;20049;-68
2021/03/05 03:16:04;;;;;;;106.00;27.60;;;;;;;3.68;91.37;100587.19;5051970;28;20033;-68
2021/03/05 03:18:33;;;;;;;61.33;26.13;;;;;;;3.65;91.37;100589.56;5033026;28;20507;-68
2021/03/05 03:21:00;;;;;;;98.17;29.53;;;;;;;3.62;92.04;100584.25;5051874;28;20029;-67
2021/03/05 03:23:28;;;;;;;80.43;25.73;;;;;;;3.63;91.83;100587.69;5050599;28;20454;-68
2021/03/05 03:25:55;;;;;;;90.07;28.33;;;;;;;3.48;92.37;100557.81;5051846;28;20032;-68
2021/03/05 03:28:20;;;;;;;90.33;28.00;;;;;;;3.39;92.17;100524.91;5050332;28;20029;-70
2021/03/05 03:30:46;;;;;;;89.23;28.20;;;;;;;3.75;91.66;100588.50;5051648;28;20095;-67
2021/03/05 03:33:13;;;;;;;113.67;28.73;;;;;;;3.58;91.05;100574.63;5051544;28;20044;-70
2021/03/05 03:35:39;;;;;;;100.67;28.10;;;;;;;3.62;91.52;100562.94;5050224;28;20033;-68
2021/03/05 03:38:08;;;;;;;84.00;28.30;;;;;;;3.73;91.61;100585.84;5051637;28;20032;-68
2021/03/05 03:40:35;;;;;;;100.15;28.70;;;;;;;3.65;91.84;100581.00;5051380;28;20036;-66
2021/03/05 03:43:02;;;;;;;79.67;27.00;;;;;;;3.48;91.89;100547.59;5051242;28;20059;-70
2021/03/05 03:45:30;;;;;;;91.03;26.40;;;;;;;3.40;92.17;100531.78;5051729;28;20029;-67
2021/03/05 03:47:58;;;;;;;91.70;27.00;;;;;;;3.36;92.26;100536.56;5049018;28;20098;-67
2021/03/05 03:50:59;;;;;;;127.10;29.53;;;;;;;3.60;92.91;100580.72;5051322;28;20476;-71
2021/03/05 03:53:30;;;;;;;83.93;27.93;;;;;;;3.52;92.81;100567.41;5029212;28;20037;-67
2021/03/05 03:55:56;;;;;;;107.77;29.13;;;;;;;3.45;93.26;100577.13;5029024;28;20492;-67
2021/03/05 03:58:24;;;;;;;86.53;27.23;;;;;;;3.38;93.56;100574.16;5029075;28;20488;-67
2021/03/05 04:00:57;;;;;;;78.53;27.63;;;;;;;3.42;93.91;100580.34;5029112;28;20037;-66
2021/03/05 04:03:29;;;;;;;110.23;25.77;;;;;;;3.21;94.54;100569.59;5029137;28;20143;-68
2021/03/05 04:05:56;;;;;;;114.23;26.43;;;;;;;3.20;94.54;100585.66;5029047;28;20060;-68
2021/03/05 04:08:23;;;;;;;95.90;28.57;;;;;;;3.26;94.48;100596.28;5029239;28;20029;-68
2021/03/05 04:10:50;;;;;;;92.23;28.63;;;;;;;3.30;94.81;100588.09;5029074;28;20091;-70
2021/03/05 04:13:17;;;;;;;111.47;37.60;;;;;;;3.37;94.35;100584.28;5029891;28;20493;-67
2021/03/05 04:15:42;;;;;;;148.57;32.40;;;;;;;3.50;93.86;100594.53;5032715;28;20520;-67
2021/03/05 04:18:08;;;;;;;79.00;32.77;;;;;;;3.58;93.38;100591.59;5032813;28;20036;-67
2021/03/05 04:20:41;;;;;;;104.70;27.50;;;;;;;3.55;93.39;100594.81;5032543;28;20405;-67
2021/03/05 04:23:07;;;;;;;96.93;32.27;;;;;;;3.51;93.61;100609.03;5032517;28;20047;-66
2021/03/05 04:25:33;;;;;;;84.80;29.73;;;;;;;3.53;93.77;100593.84;5032401;28;20053;-67
2021/03/05 04:27:58;;;;;;;91.27;38.47;;;;;;;3.61;93.97;100607.13;5034173;28;20481;-67
2021/03/05 04:30:25;;;;;;;94.97;31.07;;;;;;;3.50;93.43;100580.88;5054350;28;20090;-67
2021/03/05 04:32:51;;;;;;;97.50;30.43;;;;;;;3.73;93.48;100598.59;5048774;28;20493;-71
2021/03/05 04:35:20;;;;;;;61.90;25.53;;;;;;;3.65;92.86;100597.22;5054174;28;20044;-66
2021/03/05 04:37:45;;;;;;;74.33;32.63;;;;;;;3.78;93.26;100605.72;5052071;28;20095;-68
2021/03/05 04:40:12;;;;;;;85.80;31.10;;;;;;;3.77;92.39;100602.25;5054833;28;20036;-66
2021/03/05 04:42:38;;;;;;;70.67;29.80;;;;;;;3.70;92.93;100611.19;5054925;28;20439;-67
2021/03/05 04:45:06;;;;;;;97.80;30.80;;;;;;;3.55;93.61;100587.16;5054356;28;20473;-67
2021/03/05 04:47:32;;;;;;;71.37;27.57;;;;;;;3.54;93.64;100601.59;5054272;28;20377;-67
2021/03/05 04:49:58;;;;;;;102.33;31.13;;;;;;;3.52;94.00;100612.50;5035371;28;20041;-67
2021/03/05 04:52:24;;;;;;;90.30;31.67;;;;;;;3.50;94.54;100614.94;5054526;28;20037;-68
2021/03/05 04:54:49;;;;;;;74.70;31.60;;;;;;;3.51;94.73;100616.69;5054178;28;20114;-68
2021/03/05 04:57:15;;;;;;;101.47;30.23;;;;;;;3.55;95.00;100617.78;5054421;28;20025;-67
2021/03/05 04:59:40;;;;;;;82.90;31.87;;;;;;;3.51;95.29;100614.16;5054321;28;20039;-67
2021/03/05 05:02:06;;;;;;;66.53;29.97;;;;;;;3.53;95.27;100616.81;5054298;28;20043;-67
2021/03/05 05:04:32;;;;;;;58.80;26.87;;;;;;;3.40;95.27;100617.63;5054224;28;20025;-68
2021/03/05 05:06:57;;;;;;;77.97;30.43;;;;;;;3.07;95.86;100581.41;5054213;28;20064;-70
2021/03/05 05:09:23;;;;;;;87.07;31.53;;;;;;;3.18;96.36;100625.53;5054269;28;20028;-67
2021/03/05 05:11:48;;;;;;;87.67;32.57;;;;;;;3.19;97.26;100623.06;5053219;28;20059;-67
2021/03/05 05:14:14;;;;;;;117.37;32.67;;;;;;;3.23;97.28;100622.47;5053879;28;20053;-67
2021/03/05 05:16:40;;;;;;;99.40;32.17;;;;;;;3.23;96.93;100622.47;5053855;28;20098;-67
2021/03/05 05:19:05;;;;;;;111.83;33.27;;;;;;;3.34;97.24;100629.97;5053552;28;20025;-68
2021/03/05 05:21:31;;;;;;;119.20;34.63;;;;;;;3.38;96.88;100619.22;5053978;28;20090;-67
2021/03/05 05:23:57;;;;;;;103.43;33.47;;;;;;;3.50;96.14;100629.38;5053164;28;20086;-67
2021/03/05 05:26:25;;;;;;;72.43;33.80;;;;;;;3.56;96.07;100634.88;5053929;28;20078;-68
2021/03/05 05:28:51;;;;;;;81.17;31.27;;;;;;;3.46;95.10;100637.59;5051724;28;20041;-67
2021/03/05 05:31:16;;;;;;;66.60;28.07;;;;;;;3.38;95.48;100639.63;5053487;28;20032;-67
2021/03/05 05:33:42;;;;;;;96.97;29.07;;;;;;;3.12;95.98;100628.50;5053859;28;20098;-67
2021/03/05 05:36:07;;;;;;;84.37;26.50;;;;;;;2.89;96.16;100598.84;5053868;28;20040;-66
2021/03/05 05:38:33;;;;;;;80.27;24.70;;;;;;;3.19;95.99;100660.44;5053102;28;20033;-67
2021/03/05 05:41:00;;;;;;;59.33;24.73;;;;;;;2.94;96.00;100637.44;5052287;28;20021;-68
2021/03/05 05:43:30;;;;;;;51.53;23.70;;;;;;;2.83;95.18;100613.72;5052441;28;20527;-68
2021/03/05 05:46:02;;;;;;;60.10;25.27;;;;;;;3.17;95.44;100662.00;5052064;28;20041;-68
2021/03/05 05:48:29;;;;;;;76.90;26.23;;;;;;;3.11;95.66;100664.13;5053339;28;20036;-67
2021/03/05 05:50:56;;;;;;;98.87;27.57;;;;;;;3.16;95.50;100671.31;5052187;28;20085;-68
2021/03/05 05:53:22;;;;;;;69.70;27.60;;;;;;;3.21;95.45;100661.44;5047406;28;20093;-68
2021/03/05 05:55:48;;;;;;;52.43;20.90;;;;;;;3.13;94.57;100667.66;5052742;28;20037;-70
2021/03/05 05:58:15;;;;;;;50.57;21.37;;;;;;;3.01;95.50;100671.13;5052605;28;20173;-66
2021/03/05 06:00:40;;;;;;;73.23;25.87;;;;;;;2.95;96.35;100669.81;5046360;28;20025;-68
2021/03/05 06:03:08;;;;;;;51.50;21.33;;;;;;;2.90;97.52;100682.22;5049881;28;20041;-69
2021/03/05 06:05:34;;;;;;;122.63;27.13;;;;;;;2.80;98.02;100674.72;5050669;28;20476;-72
2021/03/05 06:08:00;;;;;;;68.97;29.13;;;;;;;2.91;98.31;100681.47;5084262;28;20128;-73
2021/03/05 06:10:27;;;;;;;90.43;32.20;;;;;;;3.20;99.73;100687.72;5052892;28;20025;-68
2021/03/05 06:12:52;;;;;;;84.23;29.17;;;;;;;3.34;98.43;100681.91;5083882;28;20033;-67
2021/03/05 06:15:20;;;;;;;90.17;26.33;;;;;;;3.40;97.80;100672.13;5052681;28;20102;-72
2021/03/05 06:17:47;;;;;;;57.67;24.37;;;;;;;3.45;96.86;100669.91;5050751;28;20071;-69
2021/03/05 06:20:14;;;;;;;101.70;27.20;;;;;;;3.42;96.13;100681.56;5048218;28;20557;-69
2021/03/05 06:22:40;;;;;;;103.20;24.10;;;;;;;3.31;95.86;100681.69;5051349;28;20029;-69
2021/03/05 06:25:07;;;;;;;44.30;20.57;;;;;;;3.26;96.39;100666.88;5052251;28;20043;-69
2021/03/05 06:27:33;;;;;;;69.63;25.40;;;;;;;3.28;96.68;100675.50;5051966;28;20064;-69
2021/03/05 06:29:58;;;;;;;84.57;23.07;;;;;;;2.97;97.46;100627.47;5052757;28;20060;-69
2021/03/05 06:32:38;;;;;;;88.60;28.17;;;;;;;3.28;98.03;100667.84;5041142;28;20083;-70
2021/03/05 06:35:05;;;;;;;76.87;27.50;;;;;;;3.30;98.30;100669.75;5031959;28;20120;-69
2021/03/05 06:37:47;;;;;;;56.93;28.23;;;;;;;3.31;98.41;100660.41;5030460;28;20485;-70
2021/03/05 06:40:13;;;;;;;73.87;27.77;;;;;;;3.53;99.03;100663.66;5031854;28;20496;-69
2021/03/05 06:42:56;;;;;;;73.93;30.97;;;;;;;3.56;99.26;100675.72;5032890;28;20037;-69
2021/03/05 06:45:24;;;;;;;94.03;29.57;;;;;;;3.61;98.60;100666.72;5032005;28;20033;-69
2021/03/05 06:48:03;;;;;;;66.83;29.83;;;;;;;3.48;98.27;100629.25;5032091;28;20108;-69
2021/03/05 06:50:31;;;;;;;37.83;23.95;;;;;;;3.52;97.60;100625.25;5032045;28;20171;-69
2021/03/05 06:52:57;;;;;;;67.23;26.80;;;;;;;3.81;97.51;100667.19;5032028;28;20033;-69
2021/03/05 06:55:22;;;;;;;85.83;25.23;;;;;;;3.55;97.57;100663.75;5031645;28;20400;-69
2021/03/05 06:57:48;;;;;;;65.97;26.80;;;;;;;3.62;97.84;100668.50;5032093;28;20037;-69
2021/03/05 07:00:18;;;;;;;54.00;23.10;;;;;;;3.70;98.47;100680.13;5038528;28;20110;-69
2021/03/05 07:02:44;;;;;;;50.73;26.33;;;;;;;3.77;98.03;100686.53;5052431;28;20472;-69
2021/03/05 07:05:10;;;;;;;51.70;27.63;;;;;;;3.94;97.83;100686.75;5051520;28;20029;-68
2021/03/05 07:07:44;;;;;;;61.40;29.30;;;;;;;4.04;97.73;100694.28;5051627;28;20041;-69
2021/03/05 07:10:11;;;;;;;40.63;25.67;;;;;;;4.14;97.49;100691.53;5051854;28;20059;-69
2021/03/05 07:12:36;;;;;;;55.23;26.60;;;;;;;4.16;96.34;100694.19;5051991;28;20040;-69
2021/03/05 07:15:10;;;;;;;48.90;26.87;;;;;;;3.99;96.34;100649.66;5051716;28;20053;-69
2021/03/05 07:17:36;;;;;;;49.33;25.37;;;;;;;4.27;96.26;100687.25;5051302;28;20123;-69
2021/03/05 07:20:03;;;;;;;47.47;27.37;;;;;;;4.22;96.16;100692.03;5051560;28;20029;-70
2021/03/05 07:22:30;;;;;;;42.40;25.57;;;;;;;4.16;95.77;100689.97;5051479;28;20053;-69
2021/03/05 07:24:58;;;;;;;50.57;26.27;;;;;;;4.16;96.68;100700.22;5051720;28;20112;-69
2021/03/05 07:27:32;;;;;;;47.20;27.80;;;;;;;4.18;96.98;100680.72;5049215;28;20124;-70
2021/03/05 07:30:00;;;;;;;52.50;27.77;;;;;;;4.40;97.36;100683.81;5051456;28;20072;-69
2021/03/05 07:32:40;;;;;;;48.70;26.60;;;;;;;4.49;96.97;100685.28;5051550;28;20057;-70
2021/03/05 07:35:14;;;;;;;48.33;24.67;;;;;;;4.54;96.30;100683.03;5051168;28;20136;-69
2021/03/05 07:37:46;;;;;;;44.73;27.07;;;;;;;4.60;96.21;100670.66;5032482;28;20116;-69
2021/03/05 07:40:14;;;;;;;40.23;25.10;;;;;;;4.68;95.91;100677.13;5050989;28;20029;-69
2021/03/05 07:42:40;;;;;;;39.63;25.27;;;;;;;4.57;95.43;100641.44;5051656;28;20033;-70
2021/03/05 07:45:11;;;;;;;42.83;25.80;;;;;;;4.85;94.76;100674.78;5051331;28;20021;-70
2021/03/05 07:47:39;;;;;;;44.53;24.70;;;;;;;4.93;94.12;100670.13;5052522;28;20028;-70
2021/03/05 07:50:08;;;;;;;39.80;24.13;;;;;;;5.01;94.10;100672.38;5048342;28;20029;-69
2021/03/05 07:52:34;;;;;;;41.63;24.80;;;;;;;5.01;93.99;100668.97;5055030;28;20029;-69
2021/03/05 07:54:59;;;;;;;43.53;26.10;;;;;;;5.07;94.30;100656.53;5055163;28;20025;-69
2021/03/05 07:57:25;;;;;;;39.37;25.03;;;;;;;5.21;94.08;100647.16;5055427;28;20021;-69
2021/03/05 07:59:52;;;;;;;45.57;27.47;;;;;;;5.30;93.54;100645.13;5055478;28;20384;-70
2021/03/05 08:02:26;;;;;;;39.38;23.95;;;;;;;5.61;93.02;100647.00;5054669;28;20029;-70
2021/03/05 08:05:04;;;;;;;34.45;21.80;;;;;;;5.79;92.31;100636.94;5054755;28;20036;-69
2021/03/05 08:07:32;;;;;;;39.47;24.17;;;;;;;5.88;92.07;100641.75;5054802;28;20059;-70
2021/03/05 08:09:59;;;;;;;34.22;23.73;;;;;;;6.08;91.28;100640.38;5052878;28;20048;-69
2021/03/05 08:12:34;;;;;;;36.78;25.02;;;;;;;6.30;90.44;100647.59;5054942;28;20548;-69
2021/03/05 08:15:08;;;;;;;36.67;23.73;;;;;;;6.52;89.39;100646.25;5054809;28;20068;-70
2021/03/05 08:17:35;;;;;;;36.15;23.77;;;;;;;6.63;87.74;100640.03;5053647;28;20037;-69
2021/03/05 08:20:03;;;;;;;36.55;23.90;;;;;;;6.71;87.42;100635.31;5052540;28;20021;-69
2021/03/05 08:22:31;;;;;;;36.13;23.10;;;;;;;6.89;86.23;100639.69;5035064;28;20057;-69
2021/03/05 08:25:24;;;;;;;32.05;21.23;;;;;;;7.11;85.47;100637.47;5035130;28;20381;-70
2021/03/05 08:27:50;;;;;;;32.47;22.25;;;;;;;7.28;84.55;100630.69;5034685;28;20026;-70
2021/03/05 08:30:18;;;;;;;31.60;21.40;;;;;;;7.11;84.28;100598.09;5034617;28;20370;-70
2021/03/05 08:32:51;;;;;;;33.85;22.05;;;;;;;7.38;83.47;100626.91;5034688;28;20029;-69
2021/03/05 08:35:28;;;;;;;32.55;19.33;;;;;;;7.42;83.39;100618.56;5034449;28;20029;-70
2021/03/05 08:37:53;;;;;;;31.75;21.15;;;;;;;7.27;83.54;100572.41;5035002;28;20393;-69
2021/03/05 08:40:21;;;;;;;31.58;21.25;;;;;;;7.59;82.92;100614.31;5034566;28;20026;-69
2021/03/05 08:42:57;;;;;;;28.38;19.30;;;;;;;7.76;81.64;100610.03;5034487;28;20029;-70
2021/03/05 08:45:31;;;;;;;33.20;20.27;;;;;;;7.90;81.97;100608.16;5033916;28;20611;-70
2021/03/05 08:48:02;;;;;;;29.55;20.98;;;;;;;8.00;81.35;100606.03;5044953;28;20032;-70
2021/03/05 08:50:33;;;;;;;30.73;20.73;;;;;;;8.20;80.81;100612.13;5051584;28;20082;-66
2021/03/05 08:53:00;;;;;;;30.52;19.17;;;;;;;8.26;80.58;100600.47;5053562;28;20025;-67
2021/03/05 08:55:34;;;;;;;32.90;22.77;;;;;;;8.52;80.22;100605.13;5051696;28;20029;-71
2021/03/05 08:58:00;;;;;;;28.40;18.35;;;;;;;8.53;79.13;100602.63;5053634;28;20161;-69
2021/03/05 09:00:30;;;;;;;27.33;18.45;;;;;;;8.62;79.27;100611.59;5085263;28;20114;-70
2021/03/05 09:03:12;;;;;;;27.00;17.50;;;;;;;8.64;78.76;100595.41;5054024;28;20048;-70
2021/03/05 09:05:43;;;;;;;25.77;18.55;;;;;;;8.93;78.21;100607.88;5053907;28;20059;-70
2021/03/05 09:08:10;;;;;;;26.27;19.15;;;;;;;9.10;77.16;100596.66;5054086;28;20029;-70
2021/03/05 09:11:10;;;;;;;28.73;19.52;;;;;;;9.17;77.34;100597.78;5053887;28;20060;-70
2021/03/05 09:13:36;;;;;;;24.38;17.70;;;;;;;9.31;76.53;100588.09;5051220;28;20049;-69
2021/03/05 09:16:04;;;;;;;27.55;19.67;;;;;;;9.49;76.54;100582.88;5034269;28;20072;-70
2021/03/05 09:18:37;;;;;;;26.95;18.58;;;;;;;9.62;75.91;100586.84;5049965;28;20495;-70
2021/03/05 09:21:11;;;;;;;29.50;18.88;;;;;;;9.54;76.59;100548.75;5051621;28;20021;-70
2021/03/05 09:23:41;;;;;;;24.75;18.88;;;;;;;9.98;75.40;100573.72;5051234;28;20041;-70
2021/03/05 09:26:08;;;;;;;24.60;16.98;;;;;;;10.25;74.50;100573.09;5051076;28;20063;-70
2021/03/05 09:28:40;;;;;;;28.55;20.35;;;;;;;10.36;74.14;100559.81;5051274;28;20450;-70
2021/03/05 09:31:07;;;;;;;24.08;17.17;;;;;;;10.46;72.54;100555.91;5051227;28;20033;-70
2021/03/05 09:33:36;;;;;;;28.83;18.70;;;;;;;10.58;72.23;100555.50;5037745;28;20087;-70
2021/03/05 09:36:05;;;;;;;24.60;18.23;;;;;;;10.74;72.91;100544.06;5028516;28;20032;-70
2021/03/05 09:38:31;;;;;;;26.08;19.13;;;;;;;10.95;71.96;100550.81;5049813;28;20479;-70
2021/03/05 09:41:17;;;;;;;25.60;17.65;;;;;;;10.98;68.93;100553.53;5050877;28;20518;-70
2021/03/05 09:43:44;;;;;;;24.30;18.30;;;;;;;11.25;67.83;100550.16;5050959;28;20091;-70
2021/03/05 09:46:16;;;;;;;26.10;19.02;;;;;;;11.45;66.36;100551.75;5049197;28;20068;-69
2021/03/05 09:48:42;;;;;;;23.23;15.75;;;;;;;11.60;66.94;100550.50;5045565;28;20029;-70
2021/03/05 09:51:07;;;;;;;26.30;18.02;;;;;;;11.76;67.69;100552.81;5052132;28;20047;-73
2021/03/05 09:53:39;;;;;;;24.95;17.42;;;;;;;11.93;66.69;100548.16;5052469;28;20381;-71
2021/03/05 09:56:06;;;;;;;22.25;15.70;;;;;;;12.08;64.87;100537.47;5052315;28;20407;-68
2021/03/05 09:58:33;;;;;;;26.73;18.38;;;;;;;12.19;64.17;100542.13;5052396;28;20070;-66
2021/03/05 10:00:59;;;;;;;25.67;17.92;;;;;;;12.11;63.67;100501.34;5049777;28;20028;-67
2021/03/05 10:03:25;;;;;;;26.63;18.65;;;;;;;12.44;65.69;100536.00;5052206;28;20021;-67
2021/03/05 10:05:51;;;;;;;26.92;17.92;;;;;;;12.46;64.28;100527.44;5052325;28;20021;-70
2021/03/05 10:08:24;;;;;;;23.13;17.40;;;;;;;12.44;63.10;100521.31;5052374;28;20469;-67
2021/03/05 10:11:11;;;;;;;27.65;18.40;;;;;;;12.52;63.04;100505.13;5052346;28;20031;-69
2021/03/05 10:13:54;;;;;;;22.92;17.05;;;;;;;12.78;63.10;100516.25;5052450;28;20060;-68
2021/03/05 10:16:40;;;;;;;24.75;16.77;;;;;;;13.03;60.00;100510.03;5051744;28;20090;-67
2021/03/05 10:19:14;;;;;;;24.17;15.30;;;;;;;13.13;58.92;100503.41;5049992;28;20043;-68
2021/03/05 10:21:45;;;;;;;25.33;16.60;;;;;;;13.17;59.49;100478.44;5050888;28;20484;-72
2021/03/05 10:24:24;;;;;;;27.88;17.98;;;;;;;13.59;59.44;100489.09;5052795;28;20033;-67
2021/03/05 10:27:10;;;;;;;24.15;16.65;;;;;;;13.94;55.54;100482.97;5051616;28;20032;-69
2021/03/05 10:29:52;;;;;;;23.67;17.02;;;;;;;14.11;53.72;100479.91;5051734;28;20107;-67
2021/03/05 10:32:22;;;;;;;23.55;13.38;;;;;;;14.29;54.01;100471.63;5032707;28;20408;-72
2021/03/05 10:34:50;;;;;;;20.55;14.82;;;;;;;14.29;51.86;100440.47;5032576;28;20120;-65
2021/03/05 10:37:17;;;;;;;23.10;14.77;;;;;;;14.71;49.31;100476.00;5032452;28;20025;-67
2021/03/05 10:39:44;;;;;;;23.65;15.30;;;;;;;14.83;49.03;100475.41;5031532;28;20021;-66
2021/03/05 10:42:12;;;;;;;21.40;14.77;;;;;;;14.86;49.17;100475.44;5047787;28;20025;-68
2021/03/05 10:44:37;;;;;;;20.02;13.85;;;;;;;14.74;47.46;100431.03;5049441;28;20052;-69
2021/03/05 10:47:07;;;;;;;20.80;14.23;;;;;;;15.08;48.21;100461.13;5050318;28;20052;-69
2021/03/05 10:49:33;;;;;;;20.65;14.80;;;;;;;15.12;45.00;100462.94;5051169;28;20025;-68
2021/03/05 10:51:59;;;;;;;23.25;15.65;;;;;;;15.22;44.06;100455.31;5050374;28;20492;-69
2021/03/05 10:54:25;;;;;;;29.83;20.98;;;;;;;15.30;49.00;100454.59;5044946;28;20025;-68
2021/03/05 10:56:52;;;;;;;27.17;16.17;;;;;;;15.22;47.66;100417.16;5036970;28;20040;-66
2021/03/05 10:59:19;;;;;;;22.33;15.02;;;;;;;15.53;45.81;100438.50;5031368;28;20097;-68
2021/03/05 11:01:51;;;;;;;21.15;13.15;;;;;;;15.60;45.17;100426.44;5032048;28;20041;-69
2021/03/05 11:04:17;;;;;;;19.35;13.95;;;;;;;15.73;45.24;100424.91;5035454;28;20442;-66
2021/03/05 11:06:43;;;;;;;19.27;13.95;;;;;;;15.88;44.05;100425.16;5043491;28;20033;-70
2021/03/05 11:09:09;;;;;;;16.27;10.20;;;;;;;15.89;42.46;100426.91;5050693;28;20036;-73
2021/03/05 11:11:35;;;;;;;15.02;10.50;;;;;;;15.84;44.88;100413.81;5051206;28;20048;-67
2021/03/05 11:14:01;;;;;;;13.73;10.07;;;;;;;16.04;44.63;100409.75;5049185;28;20091;-69
2021/03/05 11:16:27;;;;;;;12.98;9.02;;;;;;;16.17;41.73;100401.25;5050509;28;20541;-66
2021/03/05 11:18:52;;;;;;;13.18;9.05;;;;;;;16.49;42.46;100411.19;5034325;28;20033;-68
2021/03/05 11:21:18;;;;;;;14.30;10.45;;;;;;;16.53;42.04;100405.16;5037466;28;20025;-66